sensor_id;sensor_type;location;lat;lon;timestamp;temperature;humidity
70801;DHT22;59616;52.170;5.386;2022-08-21T00:00:22;16.40;75.20
70801;DHT22;59616;52.170;5.386;2022-08-21T00:02:59;16.40;75.30
70801;DHT22;59616;52.170;5.386;2022-08-21T00:05:35;16.40;75.30
70801;DHT22;59616;52.170;5.386;2022-08-21T00:08:02;16.40;75.20
70801;DHT22;59616;52.170;5.386;2022-08-21T00:10:29;16.30;75.20
70801;DHT22;59616;52.170;5.386;2022-08-21T00:12:56;16.30;75.30
70801;DHT22;59616;52.170;5.386;2022-08-21T00:15:27;16.30;75.30
70801;DHT22;59616;52.170;5.386;2022-08-21T00:17:55;16.30;75.40
70801;DHT22;59616;52.170;5.386;2022-08-21T00:20:22;16.30;75.30
70801;DHT22;59616;52.170;5.386;2022-08-21T00:22:49;16.20;75.40
70801;DHT22;59616;52.170;5.386;2022-08-21T00:25:17;16.20;75.50
70801;DHT22;59616;52.170;5.386;2022-08-21T00:27:49;16.30;75.60
70801;DHT22;59616;52.170;5.386;2022-08-21T00:30:18;16.20;75.50
70801;DHT22;59616;52.170;5.386;2022-08-21T00:32:50;16.20;75.60
70801;DHT22;59616;52.170;5.386;2022-08-21T00:35:19;16.20;75.80
70801;DHT22;59616;52.170;5.386;2022-08-21T00:37:46;16.10;75.80
70801;DHT22;59616;52.170;5.386;2022-08-21T00:40:16;16.10;75.80
70801;DHT22;59616;52.170;5.386;2022-08-21T00:42:43;16.10;75.90
70801;DHT22;59616;52.170;5.386;2022-08-21T00:45:22;16.10;75.90
70801;DHT22;59616;52.170;5.386;2022-08-21T00:47:51;16.00;75.80
70801;DHT22;59616;52.170;5.386;2022-08-21T00:50:18;16.00;76.10
70801;DHT22;59616;52.170;5.386;2022-08-21T00:52:49;16.00;76.20
70801;DHT22;59616;52.170;5.386;2022-08-21T00:55:18;16.00;76.30
70801;DHT22;59616;52.170;5.386;2022-08-21T00:57:49;16.00;76.20
70801;DHT22;59616;52.170;5.386;2022-08-21T01:00:21;15.90;76.10
70801;DHT22;59616;52.170;5.386;2022-08-21T01:02:48;16.00;76.10
70801;DHT22;59616;52.170;5.386;2022-08-21T01:05:14;15.90;76.00
70801;DHT22;59616;52.170;5.386;2022-08-21T01:07:41;15.90;76.00
70801;DHT22;59616;52.170;5.386;2022-08-21T01:10:08;15.90;76.00
70801;DHT22;59616;52.170;5.386;2022-08-21T01:12:46;15.90;76.10
70801;DHT22;59616;52.170;5.386;2022-08-21T01:15:14;15.90;76.10
70801;DHT22;59616;52.170;5.386;2022-08-21T01:17:41;15.80;76.10
70801;DHT22;59616;52.170;5.386;2022-08-21T01:20:11;15.80;76.00
70801;DHT22;59616;52.170;5.386;2022-08-21T01:22:38;15.80;76.10
70801;DHT22;59616;52.170;5.386;2022-08-21T01:25:06;15.90;76.20
70801;DHT22;59616;52.170;5.386;2022-08-21T01:27:33;15.80;76.30
70801;DHT22;59616;52.170;5.386;2022-08-21T01:30:13;15.80;76.30
70801;DHT22;59616;52.170;5.386;2022-08-21T01:32:41;15.80;76.30
70801;DHT22;59616;52.170;5.386;2022-08-21T01:35:09;15.80;76.20
70801;DHT22;59616;52.170;5.386;2022-08-21T01:37:37;15.80;76.20
70801;DHT22;59616;52.170;5.386;2022-08-21T01:40:06;15.70;76.20
70801;DHT22;59616;52.170;5.386;2022-08-21T01:42:34;15.80;76.30
70801;DHT22;59616;52.170;5.386;2022-08-21T01:45:01;15.70;76.30
70801;DHT22;59616;52.170;5.386;2022-08-21T01:47:28;15.80;76.40
70801;DHT22;59616;52.170;5.386;2022-08-21T01:49:55;15.80;76.50
70801;DHT22;59616;52.170;5.386;2022-08-21T01:52:22;15.80;76.50
70801;DHT22;59616;52.170;5.386;2022-08-21T01:54:49;15.70;76.50
70801;DHT22;59616;52.170;5.386;2022-08-21T01:57:22;15.70;76.40
70801;DHT22;59616;52.170;5.386;2022-08-21T01:59:52;15.70;76.40
70801;DHT22;59616;52.170;5.386;2022-08-21T02:02:19;15.70;76.40
70801;DHT22;59616;52.170;5.386;2022-08-21T02:04:45;15.70;76.40
70801;DHT22;59616;52.170;5.386;2022-08-21T02:07:12;15.70;76.40
70801;DHT22;59616;52.170;5.386;2022-08-21T02:09:39;15.70;76.40
70801;DHT22;59616;52.170;5.386;2022-08-21T02:12:10;15.60;76.40
70801;DHT22;59616;52.170;5.386;2022-08-21T02:14:37;15.60;76.60
70801;DHT22;59616;52.170;5.386;2022-08-21T02:17:04;15.50;76.70
70801;DHT22;59616;52.170;5.386;2022-08-21T02:19:36;15.60;76.70
70801;DHT22;59616;52.170;5.386;2022-08-21T02:22:08;15.50;76.70
70801;DHT22;59616;52.170;5.386;2022-08-21T02:24:37;15.60;76.90
70801;DHT22;59616;52.170;5.386;2022-08-21T02:27:19;15.50;76.80
70801;DHT22;59616;52.170;5.386;2022-08-21T02:29:56;15.50;77.00
70801;DHT22;59616;52.170;5.386;2022-08-21T02:32:23;15.50;77.00
70801;DHT22;59616;52.170;5.386;2022-08-21T02:34:50;15.50;77.00
70801;DHT22;59616;52.170;5.386;2022-08-21T02:37:17;15.40;77.00
70801;DHT22;59616;52.170;5.386;2022-08-21T02:39:44;15.40;77.00
70801;DHT22;59616;52.170;5.386;2022-08-21T02:42:11;15.50;77.10
70801;DHT22;59616;52.170;5.386;2022-08-21T02:44:37;15.50;77.10
70801;DHT22;59616;52.170;5.386;2022-08-21T02:47:04;15.50;77.00
70801;DHT22;59616;52.170;5.386;2022-08-21T02:49:31;15.40;77.00
70801;DHT22;59616;52.170;5.386;2022-08-21T02:51:57;15.40;77.00
70801;DHT22;59616;52.170;5.386;2022-08-21T02:54:24;15.40;77.00
70801;DHT22;59616;52.170;5.386;2022-08-21T02:56:51;15.40;77.00
70801;DHT22;59616;52.170;5.386;2022-08-21T02:59:18;15.40;77.00
70801;DHT22;59616;52.170;5.386;2022-08-21T03:01:45;15.40;77.00
70801;DHT22;59616;52.170;5.386;2022-08-21T03:04:12;15.40;77.00
70801;DHT22;59616;52.170;5.386;2022-08-21T03:06:38;15.40;77.00
70801;DHT22;59616;52.170;5.386;2022-08-21T03:09:05;15.40;77.90
70801;DHT22;59616;52.170;5.386;2022-08-21T03:11:32;15.40;77.00
70801;DHT22;59616;52.170;5.386;2022-08-21T03:13:59;15.40;77.00
70801;DHT22;59616;52.170;5.386;2022-08-21T03:16:26;15.40;77.00
70801;DHT22;59616;52.170;5.386;2022-08-21T03:18:55;15.30;77.00
70801;DHT22;59616;52.170;5.386;2022-08-21T03:21:22;15.40;77.00
70801;DHT22;59616;52.170;5.386;2022-08-21T03:23:48;15.30;77.00
70801;DHT22;59616;52.170;5.386;2022-08-21T03:26:16;15.30;77.00
70801;DHT22;59616;52.170;5.386;2022-08-21T03:28:45;15.30;77.00
70801;DHT22;59616;52.170;5.386;2022-08-21T03:31:12;15.30;77.20
70801;DHT22;59616;52.170;5.386;2022-08-21T03:33:38;15.30;77.20
70801;DHT22;59616;52.170;5.386;2022-08-21T03:36:06;15.30;77.20
70801;DHT22;59616;52.170;5.386;2022-08-21T03:38:35;15.30;77.30
70801;DHT22;59616;52.170;5.386;2022-08-21T03:41:03;15.30;77.40
70801;DHT22;59616;52.170;5.386;2022-08-21T03:43:32;15.20;77.50
70801;DHT22;59616;52.170;5.386;2022-08-21T03:46:01;15.20;77.40
70801;DHT22;59616;52.170;5.386;2022-08-21T03:48:29;15.20;77.50
70801;DHT22;59616;52.170;5.386;2022-08-21T03:50:55;15.20;77.50
70801;DHT22;59616;52.170;5.386;2022-08-21T03:53:23;15.20;78.50
70801;DHT22;59616;52.170;5.386;2022-08-21T03:55:50;15.20;77.60
70801;DHT22;59616;52.170;5.386;2022-08-21T03:58:21;15.20;77.60
70801;DHT22;59616;52.170;5.386;2022-08-21T04:00:52;15.20;77.60
70801;DHT22;59616;52.170;5.386;2022-08-21T04:03:19;15.20;77.60
70801;DHT22;59616;52.170;5.386;2022-08-21T04:05:46;15.10;77.70
70801;DHT22;59616;52.170;5.386;2022-08-21T04:08:15;15.10;77.60
70801;DHT22;59616;52.170;5.386;2022-08-21T04:10:45;15.10;77.60
70801;DHT22;59616;52.170;5.386;2022-08-21T04:13:13;15.10;77.80
70801;DHT22;59616;52.170;5.386;2022-08-21T04:15:41;15.10;77.90
70801;DHT22;59616;52.170;5.386;2022-08-21T04:18:08;15.00;77.90
70801;DHT22;59616;52.170;5.386;2022-08-21T04:20:35;15.00;78.00
70801;DHT22;59616;52.170;5.386;2022-08-21T04:23:02;15.00;78.10
70801;DHT22;59616;52.170;5.386;2022-08-21T04:25:29;15.00;78.20
70801;DHT22;59616;52.170;5.386;2022-08-21T04:27:56;14.90;78.20
70801;DHT22;59616;52.170;5.386;2022-08-21T04:30:24;14.90;78.40
70801;DHT22;59616;52.170;5.386;2022-08-21T04:32:55;14.90;78.50
70801;DHT22;59616;52.170;5.386;2022-08-21T04:35:24;15.00;78.60
70801;DHT22;59616;52.170;5.386;2022-08-21T04:37:51;15.00;78.60
70801;DHT22;59616;52.170;5.386;2022-08-21T04:40:20;14.90;78.60
70801;DHT22;59616;52.170;5.386;2022-08-21T04:42:56;14.90;78.60
70801;DHT22;59616;52.170;5.386;2022-08-21T04:45:37;14.90;78.80
70801;DHT22;59616;52.170;5.386;2022-08-21T04:48:07;14.90;79.00
70801;DHT22;59616;52.170;5.386;2022-08-21T04:53:20;14.90;79.10
70801;DHT22;59616;52.170;5.386;2022-08-21T04:55:48;14.90;78.90
70801;DHT22;59616;52.170;5.386;2022-08-21T04:58:19;14.90;78.90
70801;DHT22;59616;52.170;5.386;2022-08-21T05:00:47;14.90;79.10
70801;DHT22;59616;52.170;5.386;2022-08-21T05:03:15;14.90;79.10
70801;DHT22;59616;52.170;5.386;2022-08-21T05:05:43;14.90;79.10
70801;DHT22;59616;52.170;5.386;2022-08-21T05:08:12;14.90;79.10
70801;DHT22;59616;52.170;5.386;2022-08-21T05:10:41;14.90;79.20
70801;DHT22;59616;52.170;5.386;2022-08-21T05:13:08;14.90;79.30
70801;DHT22;59616;52.170;5.386;2022-08-21T05:15:36;14.90;79.30
70801;DHT22;59616;52.170;5.386;2022-08-21T05:18:04;14.90;79.40
70801;DHT22;59616;52.170;5.386;2022-08-21T05:20:30;15.00;79.40
70801;DHT22;59616;52.170;5.386;2022-08-21T05:22:57;15.00;79.40
70801;DHT22;59616;52.170;5.386;2022-08-21T05:25:24;15.00;79.30
70801;DHT22;59616;52.170;5.386;2022-08-21T05:27:53;15.10;79.30
70801;DHT22;59616;52.170;5.386;2022-08-21T05:30:20;15.10;79.30
70801;DHT22;59616;52.170;5.386;2022-08-21T05:32:47;15.10;79.30
70801;DHT22;59616;52.170;5.386;2022-08-21T05:35:14;15.20;79.30
70801;DHT22;59616;52.170;5.386;2022-08-21T05:37:41;15.30;79.30
70801;DHT22;59616;52.170;5.386;2022-08-21T05:40:09;15.40;79.40
70801;DHT22;59616;52.170;5.386;2022-08-21T05:42:49;15.40;79.30
70801;DHT22;59616;52.170;5.386;2022-08-21T05:45:24;15.50;79.30
70801;DHT22;59616;52.170;5.386;2022-08-21T05:48:22;15.50;79.30
70801;DHT22;59616;52.170;5.386;2022-08-21T05:50:51;15.60;79.30
70801;DHT22;59616;52.170;5.386;2022-08-21T05:53:20;15.70;79.30
70801;DHT22;59616;52.170;5.386;2022-08-21T05:55:50;15.70;79.30
70801;DHT22;59616;52.170;5.386;2022-08-21T05:58:26;15.80;79.50
70801;DHT22;59616;52.170;5.386;2022-08-21T06:01:03;15.90;79.40
70801;DHT22;59616;52.170;5.386;2022-08-21T06:03:33;15.90;79.50
70801;DHT22;59616;52.170;5.386;2022-08-21T06:06:01;15.90;79.50
70801;DHT22;59616;52.170;5.386;2022-08-21T06:08:28;16.10;79.70
70801;DHT22;59616;52.170;5.386;2022-08-21T06:10:57;16.10;79.60
70801;DHT22;59616;52.170;5.386;2022-08-21T06:13:24;16.10;79.70
70801;DHT22;59616;52.170;5.386;2022-08-21T06:16:02;16.20;79.80
70801;DHT22;59616;52.170;5.386;2022-08-21T06:18:29;16.30;79.80
70801;DHT22;59616;52.170;5.386;2022-08-21T06:20:55;16.30;79.80
70801;DHT22;59616;52.170;5.386;2022-08-21T06:23:23;16.40;79.80
70801;DHT22;59616;52.170;5.386;2022-08-21T06:25:59;16.50;79.80
70801;DHT22;59616;52.170;5.386;2022-08-21T06:28:26;16.50;79.70
70801;DHT22;59616;52.170;5.386;2022-08-21T06:30:53;16.50;79.60
70801;DHT22;59616;52.170;5.386;2022-08-21T06:33:20;16.60;79.60
70801;DHT22;59616;52.170;5.386;2022-08-21T06:35:47;16.70;79.70
70801;DHT22;59616;52.170;5.386;2022-08-21T06:38:14;16.70;79.60
70801;DHT22;59616;52.170;5.386;2022-08-21T06:40:41;16.70;79.50
70801;DHT22;59616;52.170;5.386;2022-08-21T06:43:15;16.80;79.50
70801;DHT22;59616;52.170;5.386;2022-08-21T06:45:42;16.80;79.60
70801;DHT22;59616;52.170;5.386;2022-08-21T06:48:09;16.90;79.70
70801;DHT22;59616;52.170;5.386;2022-08-21T06:50:42;16.90;79.60
70801;DHT22;59616;52.170;5.386;2022-08-21T06:53:12;17.00;79.60
70801;DHT22;59616;52.170;5.386;2022-08-21T06:55:40;17.10;79.60
70801;DHT22;59616;52.170;5.386;2022-08-21T06:58:07;17.10;79.50
70801;DHT22;59616;52.170;5.386;2022-08-21T07:00:36;17.20;79.60
70801;DHT22;59616;52.170;5.386;2022-08-21T07:03:04;17.20;79.50
70801;DHT22;59616;52.170;5.386;2022-08-21T07:05:31;17.30;79.50
70801;DHT22;59616;52.170;5.386;2022-08-21T07:07:58;17.30;79.40
70801;DHT22;59616;52.170;5.386;2022-08-21T07:10:26;17.40;79.40
70801;DHT22;59616;52.170;5.386;2022-08-21T07:12:53;17.50;79.30
70801;DHT22;59616;52.170;5.386;2022-08-21T07:15:29;17.50;79.30
70801;DHT22;59616;52.170;5.386;2022-08-21T07:17:57;17.60;79.20
70801;DHT22;59616;52.170;5.386;2022-08-21T07:20:25;17.70;79.10
70801;DHT22;59616;52.170;5.386;2022-08-21T07:22:52;17.80;79.10
70801;DHT22;59616;52.170;5.386;2022-08-21T07:25:19;17.80;79.00
70801;DHT22;59616;52.170;5.386;2022-08-21T07:27:46;17.90;78.90
70801;DHT22;59616;52.170;5.386;2022-08-21T07:30:12;18.00;78.90
70801;DHT22;59616;52.170;5.386;2022-08-21T07:32:39;18.00;78.70
70801;DHT22;59616;52.170;5.386;2022-08-21T07:35:06;18.10;78.50
70801;DHT22;59616;52.170;5.386;2022-08-21T07:37:33;18.20;78.40
70801;DHT22;59616;52.170;5.386;2022-08-21T07:40:00;18.30;78.50
70801;DHT22;59616;52.170;5.386;2022-08-21T07:42:27;18.30;78.50
70801;DHT22;59616;52.170;5.386;2022-08-21T07:44:55;18.40;78.50
70801;DHT22;59616;52.170;5.386;2022-08-21T07:47:22;18.50;78.30
70801;DHT22;59616;52.170;5.386;2022-08-21T07:50:12;18.60;78.20
70801;DHT22;59616;52.170;5.386;2022-08-21T07:52:41;18.70;78.00
70801;DHT22;59616;52.170;5.386;2022-08-21T07:55:09;18.80;77.90
70801;DHT22;59616;52.170;5.386;2022-08-21T07:57:37;18.80;77.80
70801;DHT22;59616;52.170;5.386;2022-08-21T08:00:06;18.90;77.70
70801;DHT22;59616;52.170;5.386;2022-08-21T08:02:38;19.00;77.50
70801;DHT22;59616;52.170;5.386;2022-08-21T08:05:08;19.10;77.40
70801;DHT22;59616;52.170;5.386;2022-08-21T08:07:35;19.20;77.30
70801;DHT22;59616;52.170;5.386;2022-08-21T08:10:04;19.30;77.10
70801;DHT22;59616;52.170;5.386;2022-08-21T08:12:32;19.40;76.90
70801;DHT22;59616;52.170;5.386;2022-08-21T08:15:00;19.50;77.50
70801;DHT22;59616;52.170;5.386;2022-08-21T08:17:26;19.70;76.40
70801;DHT22;59616;52.170;5.386;2022-08-21T08:19:53;19.80;76.10
70801;DHT22;59616;52.170;5.386;2022-08-21T08:22:22;20.00;76.00
70801;DHT22;59616;52.170;5.386;2022-08-21T08:24:51;20.10;75.50
70801;DHT22;59616;52.170;5.386;2022-08-21T08:27:18;20.30;75.20
70801;DHT22;59616;52.170;5.386;2022-08-21T08:29:46;20.50;74.90
70801;DHT22;59616;52.170;5.386;2022-08-21T08:32:13;20.70;74.60
70801;DHT22;59616;52.170;5.386;2022-08-21T08:34:40;20.80;73.90
70801;DHT22;59616;52.170;5.386;2022-08-21T08:37:08;20.90;73.50
70801;DHT22;59616;52.170;5.386;2022-08-21T08:39:36;21.10;73.50
70801;DHT22;59616;52.170;5.386;2022-08-21T08:42:07;21.30;72.90
70801;DHT22;59616;52.170;5.386;2022-08-21T08:45:09;21.40;72.60
70801;DHT22;59616;52.170;5.386;2022-08-21T08:47:49;21.60;72.00
70801;DHT22;59616;52.170;5.386;2022-08-21T08:50:25;21.90;71.60
70801;DHT22;59616;52.170;5.386;2022-08-21T08:53:06;22.20;70.90
70801;DHT22;59616;52.170;5.386;2022-08-21T08:55:36;22.50;70.40
70801;DHT22;59616;52.170;5.386;2022-08-21T08:58:04;22.80;69.40
70801;DHT22;59616;52.170;5.386;2022-08-21T09:00:31;23.00;69.00
70801;DHT22;59616;52.170;5.386;2022-08-21T09:03:01;23.20;68.20
70801;DHT22;59616;52.170;5.386;2022-08-21T09:05:44;23.40;67.40
70801;DHT22;59616;52.170;5.386;2022-08-21T09:11:06;23.70;66.40
70801;DHT22;59616;52.170;5.386;2022-08-21T09:22:19;23.80;66.60
70801;DHT22;59616;52.170;5.386;2022-08-21T09:25:03;23.90;65.10
70801;DHT22;59616;52.170;5.386;2022-08-21T09:27:34;24.10;64.60
70801;DHT22;59616;52.170;5.386;2022-08-21T09:30:05;24.10;64.10
70801;DHT22;59616;52.170;5.386;2022-08-21T09:32:34;23.80;64.00
70801;DHT22;59616;52.170;5.386;2022-08-21T09:37:45;23.70;64.00
70801;DHT22;59616;52.170;5.386;2022-08-21T09:45:40;23.80;64.00
70801;DHT22;59616;52.170;5.386;2022-08-21T09:48:10;24.20;63.40
70801;DHT22;59616;52.170;5.386;2022-08-21T09:50:37;24.40;62.90
70801;DHT22;59616;52.170;5.386;2022-08-21T09:53:13;24.70;62.50
70801;DHT22;59616;52.170;5.386;2022-08-21T09:55:52;25.10;61.60
70801;DHT22;59616;52.170;5.386;2022-08-21T09:58:39;25.40;60.80
70801;DHT22;59616;52.170;5.386;2022-08-21T10:01:14;25.50;60.30
70801;DHT22;59616;52.170;5.386;2022-08-21T10:03:42;25.60;59.90
70801;DHT22;59616;52.170;5.386;2022-08-21T10:06:09;25.60;59.60
70801;DHT22;59616;52.170;5.386;2022-08-21T10:08:39;25.60;59.70
70801;DHT22;59616;52.170;5.386;2022-08-21T10:11:09;25.60;60.00
70801;DHT22;59616;52.170;5.386;2022-08-21T10:16:30;25.70;59.50
70801;DHT22;59616;52.170;5.386;2022-08-21T10:27:16;25.70;58.30
70801;DHT22;59616;52.170;5.386;2022-08-21T10:36:18;25.40;58.20
70801;DHT22;59616;52.170;5.386;2022-08-21T10:38:57;25.30;58.40
70801;DHT22;59616;52.170;5.386;2022-08-21T10:45:14;25.20;58.90
70801;DHT22;59616;52.170;5.386;2022-08-21T10:47:46;25.40;59.50
70801;DHT22;59616;52.170;5.386;2022-08-21T10:50:45;25.70;57.50
70801;DHT22;59616;52.170;5.386;2022-08-21T10:53:36;25.70;56.70
70801;DHT22;59616;52.170;5.386;2022-08-21T10:56:25;25.70;56.90
70801;DHT22;59616;52.170;5.386;2022-08-21T11:02:08;25.90;55.70
70801;DHT22;59616;52.170;5.386;2022-08-21T11:04:34;26.20;56.30
70801;DHT22;59616;52.170;5.386;2022-08-21T11:07:20;26.30;55.50
70801;DHT22;59616;52.170;5.386;2022-08-21T11:09:48;26.30;55.60
70801;DHT22;59616;52.170;5.386;2022-08-21T11:12:35;26.00;55.80
70801;DHT22;59616;52.170;5.386;2022-08-21T11:15:24;25.80;56.10
70801;DHT22;59616;52.170;5.386;2022-08-21T11:18:26;25.80;56.50
70801;DHT22;59616;52.170;5.386;2022-08-21T11:24:02;25.90;55.20
70801;DHT22;59616;52.170;5.386;2022-08-21T11:26:41;25.80;55.30
70801;DHT22;59616;52.170;5.386;2022-08-21T11:29:17;25.80;55.70
70801;DHT22;59616;52.170;5.386;2022-08-21T11:31:56;26.00;55.10
70801;DHT22;59616;52.170;5.386;2022-08-21T11:37:08;25.60;55.10
70801;DHT22;59616;52.170;5.386;2022-08-21T11:39:58;25.50;55.10
70801;DHT22;59616;52.170;5.386;2022-08-21T11:42:46;25.50;56.20
70801;DHT22;59616;52.170;5.386;2022-08-21T11:45:27;25.50;56.20
70801;DHT22;59616;52.170;5.386;2022-08-21T11:48:31;25.30;56.00
70801;DHT22;59616;52.170;5.386;2022-08-21T11:51:06;25.30;55.70
70801;DHT22;59616;52.170;5.386;2022-08-21T11:53:39;25.30;55.60
70801;DHT22;59616;52.170;5.386;2022-08-21T11:56:23;25.10;55.40
70801;DHT22;59616;52.170;5.386;2022-08-21T11:58:56;24.80;55.70
70801;DHT22;59616;52.170;5.386;2022-08-21T12:01:27;24.60;56.80
70801;DHT22;59616;52.170;5.386;2022-08-21T12:04:09;24.50;57.40
70801;DHT22;59616;52.170;5.386;2022-08-21T12:06:39;24.30;57.60
70801;DHT22;59616;52.170;5.386;2022-08-21T12:09:09;24.20;58.20
70801;DHT22;59616;52.170;5.386;2022-08-21T12:11:48;24.20;58.30
70801;DHT22;59616;52.170;5.386;2022-08-21T12:14:17;24.10;58.80
70801;DHT22;59616;52.170;5.386;2022-08-21T12:16:47;24.20;58.90
70801;DHT22;59616;52.170;5.386;2022-08-21T12:22:06;25.10;57.70
70801;DHT22;59616;52.170;5.386;2022-08-21T12:24:48;25.70;56.30
70801;DHT22;59616;52.170;5.386;2022-08-21T12:27:25;26.10;55.00
70801;DHT22;59616;52.170;5.386;2022-08-21T12:29:56;26.10;54.00
70801;DHT22;59616;52.170;5.386;2022-08-21T12:32:42;26.00;53.80
70801;DHT22;59616;52.170;5.386;2022-08-21T12:35:16;25.90;53.90
70801;DHT22;59616;52.170;5.386;2022-08-21T12:38:06;25.80;54.20
70801;DHT22;59616;52.170;5.386;2022-08-21T12:40:42;25.70;54.20
70801;DHT22;59616;52.170;5.386;2022-08-21T12:43:20;25.60;54.20
70801;DHT22;59616;52.170;5.386;2022-08-21T12:45:49;25.50;54.50
70801;DHT22;59616;52.170;5.386;2022-08-21T12:48:31;25.50;54.50
70801;DHT22;59616;52.170;5.386;2022-08-21T12:51:23;25.50;54.40
70801;DHT22;59616;52.170;5.386;2022-08-21T12:53:54;25.40;54.60
70801;DHT22;59616;52.170;5.386;2022-08-21T12:56:25;25.50;53.90
70801;DHT22;59616;52.170;5.386;2022-08-21T12:59:01;25.50;53.50
70801;DHT22;59616;52.170;5.386;2022-08-21T13:01:39;26.00;53.80
70801;DHT22;59616;52.170;5.386;2022-08-21T13:04:13;26.50;52.50
70801;DHT22;59616;52.170;5.386;2022-08-21T13:06:47;26.60;51.60
70801;DHT22;59616;52.170;5.386;2022-08-21T13:09:18;26.30;52.00
70801;DHT22;59616;52.170;5.386;2022-08-21T13:11:47;26.10;52.40
70801;DHT22;59616;52.170;5.386;2022-08-21T13:14:39;26.10;52.70
70801;DHT22;59616;52.170;5.386;2022-08-21T13:17:14;26.30;52.80
70801;DHT22;59616;52.170;5.386;2022-08-21T13:20:01;26.40;52.10
70801;DHT22;59616;52.170;5.386;2022-08-21T13:22:29;26.20;51.60
70801;DHT22;59616;52.170;5.386;2022-08-21T13:25:01;26.00;51.90
70801;DHT22;59616;52.170;5.386;2022-08-21T13:27:33;25.80;52.90
70801;DHT22;59616;52.170;5.386;2022-08-21T13:30:08;25.60;53.80
70801;DHT22;59616;52.170;5.386;2022-08-21T13:32:40;25.70;53.80
70801;DHT22;59616;52.170;5.386;2022-08-21T13:35:14;25.70;53.40
70801;DHT22;59616;52.170;5.386;2022-08-21T13:37:42;25.70;53.50
70801;DHT22;59616;52.170;5.386;2022-08-21T13:40:15;25.70;53.40
70801;DHT22;59616;52.170;5.386;2022-08-21T13:42:45;26.10;53.10
70801;DHT22;59616;52.170;5.386;2022-08-21T13:45:32;26.50;52.50
70801;DHT22;59616;52.170;5.386;2022-08-21T13:48:00;26.80;52.00
70801;DHT22;59616;52.170;5.386;2022-08-21T13:50:35;26.90;51.50
70801;DHT22;59616;52.170;5.386;2022-08-21T13:53:05;27.10;50.90
70801;DHT22;59616;52.170;5.386;2022-08-21T13:55:40;27.20;50.80
70801;DHT22;59616;52.170;5.386;2022-08-21T13:58:09;27.40;50.30
70801;DHT22;59616;52.170;5.386;2022-08-21T14:00:46;27.20;50.00
70801;DHT22;59616;52.170;5.386;2022-08-21T14:03:26;27.10;50.10
70801;DHT22;59616;52.170;5.386;2022-08-21T14:05:54;27.00;50.40
70801;DHT22;59616;52.170;5.386;2022-08-21T14:08:31;26.90;50.50
70801;DHT22;59616;52.170;5.386;2022-08-21T14:11:00;26.80;50.70
70801;DHT22;59616;52.170;5.386;2022-08-21T14:13:35;26.70;51.10
70801;DHT22;59616;52.170;5.386;2022-08-21T14:16:25;26.60;51.10
70801;DHT22;59616;52.170;5.386;2022-08-21T14:21:29;26.00;51.80
70801;DHT22;59616;52.170;5.386;2022-08-21T14:24:07;25.80;52.60
70801;DHT22;59616;52.170;5.386;2022-08-21T14:26:41;25.70;52.40
70801;DHT22;59616;52.170;5.386;2022-08-21T14:29:11;25.70;52.50
70801;DHT22;59616;52.170;5.386;2022-08-21T14:31:41;25.70;52.60
70801;DHT22;59616;52.170;5.386;2022-08-21T14:34:11;25.70;52.50
70801;DHT22;59616;52.170;5.386;2022-08-21T14:36:46;25.60;52.30
70801;DHT22;59616;52.170;5.386;2022-08-21T14:39:13;25.70;52.30
70801;DHT22;59616;52.170;5.386;2022-08-21T14:41:40;25.60;52.30
70801;DHT22;59616;52.170;5.386;2022-08-21T14:44:09;25.60;52.50
70801;DHT22;59616;52.170;5.386;2022-08-21T14:46:36;25.60;53.40
70801;DHT22;59616;52.170;5.386;2022-08-21T14:49:26;25.50;52.60
70801;DHT22;59616;52.170;5.386;2022-08-21T14:51:56;25.50;53.00
70801;DHT22;59616;52.170;5.386;2022-08-21T14:54:28;25.40;53.00
70801;DHT22;59616;52.170;5.386;2022-08-21T14:57:06;25.40;53.00
70801;DHT22;59616;52.170;5.386;2022-08-21T14:59:36;25.50;53.20
70801;DHT22;59616;52.170;5.386;2022-08-21T15:02:03;25.40;52.70
70801;DHT22;59616;52.170;5.386;2022-08-21T15:04:31;25.40;52.90
70801;DHT22;59616;52.170;5.386;2022-08-21T15:06:58;25.40;53.00
70801;DHT22;59616;52.170;5.386;2022-08-21T15:09:25;25.40;52.70
70801;DHT22;59616;52.170;5.386;2022-08-21T15:11:53;25.30;52.80
70801;DHT22;59616;52.170;5.386;2022-08-21T15:14:24;25.30;53.00
70801;DHT22;59616;52.170;5.386;2022-08-21T15:16:52;25.30;52.70
70801;DHT22;59616;52.170;5.386;2022-08-21T15:19:19;25.30;53.10
70801;DHT22;59616;52.170;5.386;2022-08-21T15:21:45;25.30;53.00
70801;DHT22;59616;52.170;5.386;2022-08-21T15:24:12;25.20;53.10
70801;DHT22;59616;52.170;5.386;2022-08-21T15:26:39;25.20;53.10
70801;DHT22;59616;52.170;5.386;2022-08-21T15:29:07;25.10;53.30
70801;DHT22;59616;52.170;5.386;2022-08-21T15:31:35;25.10;53.40
70801;DHT22;59616;52.170;5.386;2022-08-21T15:34:02;25.00;53.40
70801;DHT22;59616;52.170;5.386;2022-08-21T15:36:29;25.00;53.50
70801;DHT22;59616;52.170;5.386;2022-08-21T15:38:56;24.90;53.80
70801;DHT22;59616;52.170;5.386;2022-08-21T15:41:23;24.90;53.90
70801;DHT22;59616;52.170;5.386;2022-08-21T15:43:51;24.90;53.50
70801;DHT22;59616;52.170;5.386;2022-08-21T15:46:20;24.80;53.50
70801;DHT22;59616;52.170;5.386;2022-08-21T15:48:47;24.80;53.50
70801;DHT22;59616;52.170;5.386;2022-08-21T15:51:16;24.60;53.60
70801;DHT22;59616;52.170;5.386;2022-08-21T15:53:44;24.60;53.70
70801;DHT22;59616;52.170;5.386;2022-08-21T15:56:20;24.50;53.80
70801;DHT22;59616;52.170;5.386;2022-08-21T15:58:50;24.50;54.00
70801;DHT22;59616;52.170;5.386;2022-08-21T16:01:20;24.50;54.40
70801;DHT22;59616;52.170;5.386;2022-08-21T16:03:49;24.50;54.40
70801;DHT22;59616;52.170;5.386;2022-08-21T16:06:16;24.50;54.40
70801;DHT22;59616;52.170;5.386;2022-08-21T16:09:03;24.60;54.40
70801;DHT22;59616;52.170;5.386;2022-08-21T16:11:30;24.60;53.80
70801;DHT22;59616;52.170;5.386;2022-08-21T16:13:57;24.60;54.20
70801;DHT22;59616;52.170;5.386;2022-08-21T16:16:24;24.60;54.20
70801;DHT22;59616;52.170;5.386;2022-08-21T16:18:51;24.60;54.40
70801;DHT22;59616;52.170;5.386;2022-08-21T16:21:20;24.60;54.40
70801;DHT22;59616;52.170;5.386;2022-08-21T16:23:47;24.60;54.50
70801;DHT22;59616;52.170;5.386;2022-08-21T16:26:16;24.60;54.80
70801;DHT22;59616;52.170;5.386;2022-08-21T16:28:44;24.50;55.40
70801;DHT22;59616;52.170;5.386;2022-08-21T16:31:13;24.50;55.70
70801;DHT22;59616;52.170;5.386;2022-08-21T16:33:43;24.50;55.60
70801;DHT22;59616;52.170;5.386;2022-08-21T16:36:11;24.40;55.40
70801;DHT22;59616;52.170;5.386;2022-08-21T16:38:38;24.30;55.50
70801;DHT22;59616;52.170;5.386;2022-08-21T16:41:10;24.30;55.50
70801;DHT22;59616;52.170;5.386;2022-08-21T16:43:39;24.20;55.80
70801;DHT22;59616;52.170;5.386;2022-08-21T16:46:09;24.10;56.00
70801;DHT22;59616;52.170;5.386;2022-08-21T16:48:37;24.00;56.10
70801;DHT22;59616;52.170;5.386;2022-08-21T16:51:05;24.00;56.40